Time;durP1;ratioP1;P1;durP2;ratioP2;P2;SDS_P1;SDS_P2;PMS_P1;PMS_P2;Temp;Humidity;BMP_temperature;BMP_pressure;BME280_temperature;BME280_humidity;BME280_pressure;Samples;Min_cycle;Max_cycle;Signal;HPM_P1;HPM_P2
2022/07/05 00:01:03;;;;;;;5.90;4.70;;;14.70;76.70;;;;;;4961462;28;20447;-81
2022/07/05 00:03:29;;;;;;;3.85;3.50;;;14.60;76.60;;;;;;4961761;28;20035;-81
2022/07/05 00:05:56;;;;;;;4.57;3.50;;;14.70;76.70;;;;;;4977413;28;20395;-80
2022/07/05 00:08:22;;;;;;;5.25;4.40;;;14.70;76.50;;;;;;4961565;28;20148;-80
2022/07/05 00:10:48;;;;;;;5.13;3.85;;;14.60;77.20;;;;;;4945540;28;20487;-81
2022/07/05 00:13:14;;;;;;;12.02;4.38;;;14.60;77.00;;;;;;4945488;28;20050;-83
2022/07/05 00:15:40;;;;;;;6.63;4.00;;;14.70;76.90;;;;;;4960743;28;20065;-81
2022/07/05 00:18:07;;;;;;;5.55;4.03;;;14.70;76.80;;;;;;4945267;28;20050;-80
2022/07/05 00:20:33;;;;;;;6.90;4.10;;;14.70;77.00;;;;;;4976882;28;20038;-81
2022/07/05 00:23:00;;;;;;;5.28;3.50;;;14.70;76.90;;;;;;4977402;28;20443;-79
2022/07/05 00:25:26;;;;;;;6.40;4.07;;;14.70;76.90;;;;;;4977114;28;20051;-80
2022/07/05 00:27:53;;;;;;;6.15;4.22;;;14.70;76.80;;;;;;4960946;28;20043;-83
2022/07/05 00:30:19;;;;;;;6.72;4.35;;;14.70;76.80;;;;;;4961484;28;20125;-78
2022/07/05 00:32:45;;;;;;;9.70;4.22;;;14.80;76.90;;;;;;4977231;28;20375;-81
2022/07/05 00:35:11;;;;;;;6.50;4.22;;;14.70;77.10;;;;;;4944981;28;20050;-81
2022/07/05 00:37:37;;;;;;;4.47;3.83;;;14.70;77.10;;;;;;4977004;28;20042;-77
2022/07/05 00:40:04;;;;;;;4.95;4.10;;;14.70;77.10;;;;;;4977068;28;20038;-79
2022/07/05 00:42:30;;;;;;;4.30;3.90;;;14.70;77.50;;;;;;4977028;28;20042;-79
2022/07/05 00:44:56;;;;;;;4.50;3.88;;;14.70;77.40;;;;;;4976974;28;20038;-80
2022/07/05 00:47:23;;;;;;;4.57;3.05;;;14.60;77.50;;;;;;4977096;28;20049;-79
2022/07/05 00:49:49;;;;;;;4.70;4.20;;;14.60;77.40;;;;;;4976952;28;20056;-78
2022/07/05 00:52:15;;;;;;;4.95;4.45;;;14.60;77.50;;;;;;4976929;28;20127;-81
2022/07/05 00:54:41;;;;;;;6.80;4.53;;;14.60;77.60;;;;;;4976793;28;20050;-80
2022/07/05 00:57:07;;;;;;;6.22;4.45;;;14.60;77.50;;;;;;4976925;28;20046;-78
2022/07/05 00:59:33;;;;;;;6.80;4.18;;;14.60;77.80;;;;;;4960577;28;20046;-77
2022/07/05 01:01:59;;;;;;;7.35;5.30;;;14.50;78.10;;;;;;4960783;28;20045;-79
2022/07/05 01:04:25;;;;;;;4.78;4.22;;;14.50;77.90;;;;;;4960717;28;20041;-79
2022/07/05 01:06:52;;;;;;;4.95;4.50;;;14.50;77.90;;;;;;4976825;28;20034;-78
2022/07/05 01:09:21;;;;;;;6.72;4.63;;;14.40;78.40;;;;;;4977034;28;20081;-81
2022/07/05 01:11:48;;;;;;;5.78;4.57;;;14.40;78.50;;;;;;4976578;28;20042;-79
2022/07/05 01:14:20;;;;;;;7.13;4.70;;;14.40;78.30;;;;;;4992622;28;20078;-78
2022/07/05 01:16:47;;;;;;;5.20;4.70;;;14.40;78.50;;;;;;4960731;28;20042;-78
2022/07/05 01:19:13;;;;;;;5.32;4.55;;;14.30;78.40;;;;;;4976455;28;20466;-79
2022/07/05 01:21:43;;;;;;;7.03;4.53;;;14.30;78.60;;;;;;4960352;28;20038;-81
2022/07/05 01:24:11;;;;;;;6.05;5.55;;;14.20;78.70;;;;;;4976269;28;20045;-80
2022/07/05 01:26:39;;;;;;;7.20;4.70;;;14.20;78.90;;;;;;4960520;28;20042;-80
2022/07/05 01:29:06;;;;;;;6.40;4.43;;;14.20;78.80;;;;;;4976302;28;20078;-81
2022/07/05 01:31:32;;;;;;;6.80;4.95;;;14.20;78.70;;;;;;4976233;28;20054;-79
2022/07/05 01:33:58;;;;;;;5.78;5.20;;;14.20;78.80;;;;;;4975874;28;20137;-83
2022/07/05 01:36:24;;;;;;;6.18;5.03;;;14.20;78.70;;;;;;4959921;28;20049;-78
2022/07/05 01:38:50;;;;;;;7.28;5.68;;;14.20;78.90;;;;;;4977418;28;20043;-80
2022/07/05 01:41:16;;;;;;;5.20;4.70;;;14.20;78.90;;;;;;4979962;28;20067;-83
2022/07/05 01:43:42;;;;;;;5.40;4.82;;;14.10;79.00;;;;;;4980114;28;20038;-81
2022/07/05 01:46:09;;;;;;;6.05;5.45;;;14.10;79.00;;;;;;4964032;28;20034;-80
2022/07/05 01:48:38;;;;;;;5.40;4.88;;;14.10;79.40;;;;;;4963854;28;20462;-78
2022/07/05 01:51:18;;;;;;;6.18;5.43;;;14.10;79.60;;;;;;4980099;28;20117;-82
2022/07/05 01:53:45;;;;;;;9.02;5.50;;;14.10;79.40;;;;;;4979925;28;20573;-81
2022/07/05 01:56:10;;;;;;;6.50;5.15;;;14.00;79.80;;;;;;4964055;28;20443;-78
2022/07/05 01:58:37;;;;;;;7.18;5.47;;;14.00;80.10;;;;;;4931839;28;20053;-79
2022/07/05 02:01:02;;;;;;;6.35;5.20;;;13.90;80.20;;;;;;4963647;28;20049;-80
2022/07/05 02:03:29;;;;;;;6.97;5.85;;;13.90;79.90;;;;;;4979674;28;20114;-77
2022/07/05 02:05:55;;;;;;;6.93;6.13;;;13.80;80.00;;;;;;4979930;28;20042;-82
2022/07/05 02:08:21;;;;;;;6.55;5.13;;;13.80;80.10;;;;;;4963790;28;20096;-81
2022/07/05 02:10:47;;;;;;;8.48;5.82;;;13.80;80.20;;;;;;4963386;28;20402;-78
2022/07/05 02:13:13;;;;;;;6.68;5.75;;;13.80;80.30;;;;;;4979594;28;20050;-78
2022/07/05 02:15:41;;;;;;;8.30;5.45;;;13.80;80.40;;;;;;4979371;28;20074;-80
2022/07/05 02:18:08;;;;;;;7.80;5.85;;;13.80;80.40;;;;;;4963643;28;20487;-81
2022/07/05 02:20:37;;;;;;;7.57;5.75;;;13.80;80.50;;;;;;4978984;28;20058;-79
2022/07/05 02:23:03;;;;;;;7.57;5.65;;;13.80;80.80;;;;;;4979431;28;20039;-80
2022/07/05 02:25:29;;;;;;;9.10;6.43;;;13.70;80.90;;;;;;4979272;28;20066;-81
2022/07/05 02:27:55;;;;;;;7.35;5.45;;;13.80;80.90;;;;;;4979444;28;20034;-80
2022/07/05 02:30:21;;;;;;;8.30;6.55;;;13.80;80.80;;;;;;4979466;28;20060;-79
2022/07/05 02:32:47;;;;;;;6.18;5.57;;;13.80;80.80;;;;;;4979138;28;20426;-79
2022/07/05 02:35:13;;;;;;;6.65;5.03;;;13.70;81.10;;;;;;4979018;28;20038;-78
2022/07/05 02:37:39;;;;;;;8.05;5.40;;;13.80;80.90;;;;;;4979316;28;20525;-81
2022/07/05 02:40:10;;;;;;;7.07;5.45;;;13.70;81.10;;;;;;4979208;28;20117;-81
2022/07/05 02:42:37;;;;;;;6.80;5.10;;;13.80;80.90;;;;;;4979252;28;20039;-79
2022/07/05 02:45:03;;;;;;;7.18;5.30;;;13.70;81.10;;;;;;4978964;28;20047;-82
2022/07/05 02:47:30;;;;;;;6.15;5.55;;;13.70;81.50;;;;;;4962887;28;20564;-79
2022/07/05 02:49:57;;;;;;;5.82;5.32;;;13.80;81.10;;;;;;4977586;28;20499;-79
2022/07/05 02:52:23;;;;;;;6.75;4.85;;;13.70;81.20;;;;;;4979101;28;20046;-80
2022/07/05 02:54:49;;;;;;;6.55;5.18;;;13.70;82.00;;;;;;4962695;28;20045;-80
2022/07/05 02:57:14;;;;;;;6.13;4.85;;;13.70;81.60;;;;;;4978858;28;20042;-78
2022/07/05 02:59:40;;;;;;;6.32;4.38;;;13.70;82.00;;;;;;4978272;28;20046;-78
2022/07/05 03:02:06;;;;;;;6.07;5.30;;;13.70;81.70;;;;;;4978441;28;20045;-78
2022/07/05 03:04:31;;;;;;;6.68;5.05;;;13.70;81.40;;;;;;4978595;28;20048;-79
2022/07/05 03:06:57;;;;;;;6.57;5.18;;;13.70;81.30;;;;;;4978456;28;20092;-80
2022/07/05 03:09:23;;;;;;;6.50;5.05;;;13.80;81.20;;;;;;4978276;28;20046;-81
2022/07/05 03:11:48;;;;;;;9.52;5.78;;;13.80;81.40;;;;;;4962139;28;20042;-80
2022/07/05 03:14:14;;;;;;;5.35;4.47;;;13.80;81.40;;;;;;4978246;28;20479;-80
2022/07/05 03:16:39;;;;;;;5.72;4.50;;;13.90;81.70;;;;;;4962371;28;20487;-81
2022/07/05 03:19:05;;;;;;;6.50;4.28;;;13.90;81.30;;;;;;4978462;28;20075;-79
2022/07/05 03:21:31;;;;;;;6.45;4.68;;;13.90;81.40;;;;;;4978168;28;20042;-81
2022/07/05 03:23:56;;;;;;;5.88;4.32;;;14.00;81.00;;;;;;4946145;28;20038;-81
2022/07/05 03:26:22;;;;;;;7.95;5.00;;;14.00;81.00;;;;;;4961900;28;20141;-82
2022/07/05 03:28:48;;;;;;;4.88;3.67;;;14.00;80.80;;;;;;4978334;28;20089;-78
2022/07/05 03:31:16;;;;;;;5.70;3.85;;;14.00;80.90;;;;;;4978370;28;20045;-78
2022/07/05 03:33:42;;;;;;;4.95;3.75;;;14.10;80.60;;;;;;4978077;28;20095;-79
2022/07/05 03:36:08;;;;;;;5.25;3.67;;;14.00;80.60;;;;;;4978044;28;20046;-79
2022/07/05 03:38:36;;;;;;;4.97;3.83;;;14.10;80.60;;;;;;4962064;28;20042;-79
2022/07/05 03:41:02;;;;;;;7.38;3.35;;;14.10;80.60;;;;;;4978255;28;20069;-78
2022/07/05 03:43:28;;;;;;;5.03;3.25;;;14.10;80.40;;;;;;4978030;28;20488;-79
2022/07/05 03:45:54;;;;;;;3.58;3.28;;;14.10;80.40;;;;;;4962026;28;20042;-80
2022/07/05 03:48:20;;;;;;;6.13;3.53;;;14.10;80.20;;;;;;4977868;28;20042;-81
2022/07/05 03:50:46;;;;;;;5.55;4.00;;;14.10;80.20;;;;;;4977817;28;20054;-81
2022/07/05 03:53:12;;;;;;;6.47;3.35;;;14.10;80.30;;;;;;4977735;28;20050;-78
2022/07/05 03:55:37;;;;;;;7.57;3.72;;;14.10;80.20;;;;;;4977548;28;20049;-81
2022/07/05 03:58:03;;;;;;;3.38;2.88;;;14.10;80.40;;;;;;4977784;28;20046;-80
2022/07/05 04:00:29;;;;;;;4.95;4.18;;;14.10;80.50;;;;;;4961548;28;20483;-79
2022/07/05 04:02:55;;;;;;;5.68;3.40;;;14.00;80.40;;;;;;4977687;28;20038;-82
2022/07/05 04:05:20;;;;;;;6.00;3.47;;;14.10;80.30;;;;;;4961264;28;20127;-81
2022/07/05 04:07:51;;;;;;;4.85;3.67;;;14.00;80.40;;;;;;4961229;28;20553;-81
2022/07/05 04:10:18;;;;;;;4.63;3.58;;;14.10;80.30;;;;;;4977283;28;20092;-79
2022/07/05 04:12:45;;;;;;;5.85;3.70;;;14.00;80.20;;;;;;4977539;28;20050;-80
2022/07/05 04:15:11;;;;;;;5.80;3.75;;;14.00;80.20;;;;;;4961339;28;20065;-80
2022/07/05 04:17:54;;;;;;;6.35;3.90;;;14.00;80.40;;;;;;4961309;28;20046;-82
2022/07/05 04:20:21;;;;;;;4.25;3.38;;;14.00;80.30;;;;;;4977099;28;20123;-80
2022/07/05 04:22:48;;;;;;;4.80;3.50;;;14.00;80.40;;;;;;4961435;28;20449;-81
2022/07/05 04:25:16;;;;;;;5.35;4.00;;;14.00;80.30;;;;;;4961238;28;20104;-80
2022/07/05 04:27:53;;;;;;;4.20;3.10;;;14.00;80.40;;;;;;4977071;28;20042;-83
2022/07/05 04:30:23;;;;;;;5.20;3.60;;;14.00;80.50;;;;;;4976952;28;20730;-82
2022/07/05 04:32:49;;;;;;;6.25;3.50;;;14.00;80.40;;;;;;4960929;28;20129;-80
2022/07/05 04:35:16;;;;;;;7.60;3.30;;;14.00;80.40;;;;;;4977022;28;20049;-79
2022/07/05 04:37:43;;;;;;;5.47;3.08;;;14.10;80.40;;;;;;4992991;28;20035;-79
2022/07/05 04:40:11;;;;;;;5.55;3.30;;;14.10;80.60;;;;;;4960722;28;20046;-79
2022/07/05 04:42:37;;;;;;;3.67;2.88;;;14.10;80.70;;;;;;4976582;28;20125;-79
2022/07/05 04:45:04;;;;;;;5.13;2.92;;;14.20;80.40;;;;;;4960863;28;20043;-80
2022/07/05 04:47:29;;;;;;;4.35;2.90;;;14.20;80.20;;;;;;4993138;28;20034;-78
2022/07/05 04:49:59;;;;;;;5.03;3.00;;;14.30;80.30;;;;;;4961096;28;20038;-79
2022/07/05 04:52:25;;;;;;;4.43;2.88;;;14.30;80.50;;;;;;4961028;28;20475;-79
2022/07/05 04:54:51;;;;;;;4.65;2.53;;;14.40;80.60;;;;;;4960714;28;20137;-80
2022/07/05 04:57:17;;;;;;;6.43;2.47;;;14.50;80.40;;;;;;4976605;28;20521;-80
2022/07/05 04:59:43;;;;;;;3.03;2.20;;;14.50;80.30;;;;;;4976605;28;20050;-78
2022/07/05 05:02:08;;;;;;;5.65;2.35;;;14.60;79.90;;;;;;4960413;28;20034;-79
2022/07/05 05:04:34;;;;;;;4.72;2.33;;;14.70;79.70;;;;;;4960652;28;20038;-80
2022/07/05 05:07:00;;;;;;;5.28;2.20;;;14.80;79.90;;;;;;4960557;28;20034;-80
2022/07/05 05:09:25;;;;;;;4.10;1.77;;;14.90;80.10;;;;;;4976770;28;20046;-81
2022/07/05 05:11:51;;;;;;;4.03;1.90;;;15.00;80.10;;;;;;4960655;28;20050;-78
2022/07/05 05:14:17;;;;;;;5.05;1.95;;;15.10;80.20;;;;;;4947087;28;20356;-79
2022/07/05 05:16:43;;;;;;;5.32;1.60;;;15.30;80.40;;;;;;4964274;28;20050;-80
2022/07/05 05:19:08;;;;;;;9.50;2.28;;;15.30;80.40;;;;;;4964701;28;20042;-79
2022/07/05 05:21:34;;;;;;;5.30;1.80;;;15.50;80.20;;;;;;4980336;28;20049;-80
2022/07/05 05:24:00;;;;;;;6.43;1.52;;;15.50;80.20;;;;;;4964531;28;20078;-80
2022/07/05 05:26:25;;;;;;;3.28;1.67;;;15.50;80.20;;;;;;4964588;28;20045;-79
2022/07/05 05:28:51;;;;;;;3.58;1.70;;;15.60;80.30;;;;;;4980643;28;20050;-76
2022/07/05 05:31:17;;;;;;;4.93;2.08;;;15.60;80.10;;;;;;4948559;28;20034;-77
2022/07/05 05:33:43;;;;;;;4.93;1.83;;;15.60;80.50;;;;;;4980034;28;20042;-77
2022/07/05 05:36:09;;;;;;;3.28;1.70;;;15.50;80.60;;;;;;4980107;28;20045;-77
2022/07/05 05:38:35;;;;;;;3.13;1.63;;;15.60;80.90;;;;;;4964364;28;20046;-77
2022/07/05 05:41:01;;;;;;;8.05;1.90;;;15.60;80.90;;;;;;4963841;28;20046;-77
2022/07/05 05:43:26;;;;;;;3.58;1.50;;;15.60;81.30;;;;;;4964321;28;20141;-79
2022/07/05 05:45:52;;;;;;;9.30;2.05;;;15.70;81.30;;;;;;4975030;28;20053;-79
2022/07/05 05:48:18;;;;;;;5.22;1.77;;;15.80;81.40;;;;;;4971993;28;20136;-76
2022/07/05 05:50:47;;;;;;;5.47;1.55;;;15.90;81.60;;;;;;5001389;28;20141;-74
2022/07/05 05:53:13;;;;;;;4.40;1.50;;;16.00;81.50;;;;;;4973830;28;20462;-75
2022/07/05 05:55:39;;;;;;;8.68;1.95;;;16.20;81.40;;;;;;4973134;28;20170;-76
2022/07/05 05:58:17;;;;;;;5.57;1.48;;;16.30;81.50;;;;;;4958178;28;20047;-77
2022/07/05 06:00:43;;;;;;;7.43;1.77;;;16.40;80.80;;;;;;4995676;28;20224;-76
2022/07/05 06:03:09;;;;;;;8.23;1.70;;;16.50;80.30;;;;;;4975418;28;20038;-76
2022/07/05 06:05:35;;;;;;;4.55;1.20;;;16.50;80.10;;;;;;4973523;28;20427;-77
2022/07/05 06:08:01;;;;;;;5.20;1.45;;;16.70;79.80;;;;;;4974341;28;20394;-76
2022/07/05 06:10:30;;;;;;;8.32;1.27;;;16.70;79.50;;;;;;4973527;28;20043;-75
2022/07/05 06:12:57;;;;;;;7.82;2.55;;;16.90;79.00;;;;;;4971467;28;20046;-77
2022/07/05 06:15:23;;;;;;;5.90;1.50;;;17.00;78.20;;;;;;4971436;28;20116;-75
2022/07/05 06:17:49;;;;;;;6.72;1.25;;;17.00;78.00;;;;;;4958031;28;20046;-75
2022/07/05 06:20:21;;;;;;;7.63;2.13;;;17.10;78.00;;;;;;4997900;28;20064;-75
2022/07/05 06:22:47;;;;;;;5.75;1.70;;;17.20;77.70;;;;;;4958247;28;20053;-75
2022/07/05 06:25:13;;;;;;;4.82;1.50;;;17.20;76.80;;;;;;4958154;28;20050;-78
2022/07/05 06:27:47;;;;;;;6.10;1.45;;;17.30;76.20;;;;;;4997658;28;20076;-79
2022/07/05 06:30:14;;;;;;;;;;;17.30;76.10;;;;;;4974000;28;20046;-79
2022/07/05 06:32:42;;;;;;;5.55;1.70;;;17.40;76.40;;;;;;4972232;28;19926;-78
2022/07/05 06:35:08;;;;;;;5.82;1.20;;;17.50;76.00;;;;;;4971010;28;20093;-78
2022/07/05 06:37:54;;;;;;;3.85;0.90;;;17.50;76.00;;;;;;4972987;28;20053;-79
2022/07/05 06:40:26;;;;;;;4.10;1.10;;;17.60;74.60;;;;;;4974629;28;20046;-76
2022/07/05 06:42:53;;;;;;;4.47;1.27;;;17.60;73.50;;;;;;4992845;28;20387;-79
2022/07/05 06:45:19;;;;;;;2.55;0.70;;;17.70;72.30;;;;;;4999327;28;20047;-78
2022/07/05 06:47:53;;;;;;;2.50;0.90;;;17.70;73.30;;;;;;4974965;28;20056;-78
2022/07/05 06:50:18;;;;;;;3.85;0.80;;;17.80;72.80;;;;;;4960047;28;20050;-77
2022/07/05 06:52:44;;;;;;;5.28;1.30;;;17.80;71.10;;;;;;4975609;28;20379;-79
2022/07/05 06:55:10;;;;;;;6.22;1.27;;;17.90;71.40;;;;;;4962469;28;20078;-78
2022/07/05 06:57:35;;;;;;;3.00;1.00;;;18.00;70.00;;;;;;4973251;28;20057;-79
2022/07/05 07:00:02;;;;;;;3.88;0.85;;;18.00;68.80;;;;;;4957520;28;20046;-79
2022/07/05 07:02:28;;;;;;;3.63;1.20;;;18.00;69.40;;;;;;4973190;28;20360;-79
2022/07/05 07:04:54;;;;;;;3.58;1.30;;;18.00;68.90;;;;;;4974579;28;20041;-78
2022/07/05 07:10:04;;;;;;;2.55;0.90;;;18.10;68.10;;;;;;4974304;28;20383;-79
2022/07/05 07:12:30;;;;;;;6.65;2.50;;;18.30;67.90;;;;;;4974289;28;20444;-78
2022/07/05 07:14:56;;;;;;;4.22;1.13;;;18.30;68.90;;;;;;4973491;28;20058;-78
2022/07/05 07:17:23;;;;;;;2.83;1.05;;;18.30;68.60;;;;;;4972709;28;20054;-77
2022/07/05 07:19:49;;;;;;;3.80;1.35;;;18.30;67.20;;;;;;4989357;28;20848;-78
2022/07/05 07:22:15;;;;;;;4.43;1.00;;;18.30;67.40;;;;;;4958328;28;20410;-80
2022/07/05 07:24:41;;;;;;;2.92;0.70;;;18.30;64.40;;;;;;4974102;28;20046;-80
2022/07/05 07:27:07;;;;;;;3.15;1.45;;;18.40;65.50;;;;;;4972680;28;20495;-78
2022/07/05 07:29:38;;;;;;;7.13;1.35;;;18.40;64.30;;;;;;4973452;28;20049;-78
2022/07/05 07:32:05;;;;;;;4.30;1.30;;;18.50;64.20;;;;;;4957548;28;20053;-76
2022/07/05 07:34:31;;;;;;;3.70;0.70;;;18.60;64.90;;;;;;4942075;28;20043;-79
2022/07/05 07:36:57;;;;;;;6.43;1.17;;;18.60;66.00;;;;;;4996265;28;20396;-80
2022/07/05 07:39:24;;;;;;;5.15;1.05;;;18.60;65.70;;;;;;4972679;28;20046;-79
2022/07/05 07:41:50;;;;;;;3.10;0.73;;;18.60;64.80;;;;;;4957359;28;20383;-78
2022/07/05 07:44:16;;;;;;;3.70;1.27;;;18.60;63.60;;;;;;4972524;28;20053;-79
2022/07/05 07:46:42;;;;;;;1.83;0.60;;;18.70;63.30;;;;;;4969906;28;20046;-78
2022/07/05 07:49:09;;;;;;;1.83;1.05;;;18.70;63.70;;;;;;4971680;28;20042;-76
2022/07/05 07:51:35;;;;;;;6.35;0.90;;;18.80;63.30;;;;;;4971241;28;20046;-76
2022/07/05 07:54:01;;;;;;;4.10;0.73;;;18.80;63.20;;;;;;4955923;28;20137;-78
2022/07/05 07:56:27;;;;;;;2.85;0.95;;;18.90;63.70;;;;;;4955566;28;20139;-76
2022/07/05 07:58:53;;;;;;;2.60;0.70;;;19.00;62.50;;;;;;4971917;28;20544;-76
2022/07/05 08:01:19;;;;;;;2.72;0.88;;;19.00;62.30;;;;;;4972315;28;20034;-75
2022/07/05 08:03:45;;;;;;;3.28;1.48;;;19.00;62.50;;;;;;4972747;28;20101;-75
2022/07/05 08:06:12;;;;;;;3.38;1.13;;;19.10;62.90;;;;;;4970671;28;20046;-78
2022/07/05 08:08:38;;;;;;;2.88;0.93;;;19.20;63.40;;;;;;4956168;28;20047;-75
2022/07/05 08:11:05;;;;;;;2.35;0.90;;;19.20;61.50;;;;;;4971804;28;20042;-75
2022/07/05 08:13:31;;;;;;;3.78;0.90;;;19.30;60.50;;;;;;4972734;28;20475;-76
2022/07/05 08:15:57;;;;;;;3.60;0.98;;;19.50;60.80;;;;;;4949851;28;20077;-76
2022/07/05 08:23:52;;;;;;;4.28;0.93;;;19.50;62.10;;;;;;4972728;28;20049;-76
2022/07/05 08:26:21;;;;;;;3.60;0.77;;;19.20;63.00;;;;;;4955726;28;20046;-77
2022/07/05 08:28:48;;;;;;;3.22;1.20;;;19.00;63.20;;;;;;4972362;28;20049;-75
2022/07/05 08:31:13;;;;;;;3.38;0.82;;;18.90;63.70;;;;;;4956689;28;20129;-78
2022/07/05 08:33:39;;;;;;;6.07;1.30;;;18.70;64.60;;;;;;4956435;28;20125;-78
2022/07/05 08:36:05;;;;;;;5.82;1.45;;;18.70;63.10;;;;;;4971542;28;20065;-78
2022/07/05 08:38:31;;;;;;;6.85;2.20;;;18.60;63.30;;;;;;4955822;28;20046;-76
2022/07/05 08:40:57;;;;;;;5.40;1.52;;;18.50;64.30;;;;;;4956625;28;20038;-79
2022/07/05 08:43:24;;;;;;;5.07;0.98;;;18.50;65.20;;;;;;4995844;28;20402;-78
2022/07/05 08:45:56;;;;;;;7.30;1.20;;;18.60;64.50;;;;;;4956201;28;20461;-77
2022/07/05 08:48:25;;;;;;;5.43;0.93;;;18.90;62.70;;;;;;4972155;28;20053;-78
2022/07/05 08:50:51;;;;;;;2.50;1.10;;;19.00;62.50;;;;;;4972114;28;20116;-78
2022/07/05 08:53:21;;;;;;;3.28;1.20;;;19.10;61.60;;;;;;4972525;28;20117;-78
2022/07/05 08:55:47;;;;;;;4.65;1.25;;;19.00;61.40;;;;;;4980163;28;20065;-78
2022/07/05 08:58:13;;;;;;;6.28;1.33;;;19.20;62.80;;;;;;4972569;28;20156;-78
2022/07/05 09:00:41;;;;;;;2.25;1.05;;;19.30;61.80;;;;;;4954627;28;20132;-78
2022/07/05 09:03:07;;;;;;;3.05;0.80;;;19.40;58.00;;;;;;4971561;28;20050;-77
2022/07/05 09:05:46;;;;;;;3.95;1.20;;;19.60;57.20;;;;;;4971314;28;20065;-77
2022/07/05 09:08:16;;;;;;;5.07;1.20;;;19.80;56.90;;;;;;4971842;28;20047;-77
2022/07/05 09:10:43;;;;;;;2.15;0.63;;;19.90;55.20;;;;;;4977709;28;20098;-77
2022/07/05 09:13:08;;;;;;;5.20;1.00;;;20.00;54.00;;;;;;4971693;28;20058;-77
2022/07/05 09:15:37;;;;;;;4.43;1.10;;;20.00;54.90;;;;;;4938971;29;20173;-76
2022/07/05 09:18:03;;;;;;;4.10;1.65;;;20.00;55.30;;;;;;4944122;29;20524;-77
2022/07/05 09:20:29;;;;;;;7.35;1.27;;;20.00;55.70;;;;;;4933078;29;20099;-77
2022/07/05 09:22:56;;;;;;;4.15;1.48;;;20.00;57.60;;;;;;4948352;29;20384;-78
2022/07/05 09:25:30;;;;;;;6.30;1.10;;;20.00;58.00;;;;;;4949106;29;20109;-78
2022/07/05 09:28:04;;;;;;;3.42;1.02;;;20.00;59.20;;;;;;4950104;29;20496;-77
2022/07/05 09:30:32;;;;;;;;;;;20.00;59.10;;;;;;4949284;28;20047;-79
2022/07/05 09:33:08;;;;;;;6.38;1.55;;;19.90;59.40;;;;;;4949958;29;19918;-78
2022/07/05 09:35:51;;;;;;;3.90;1.42;;;19.90;59.50;;;;;;4947589;29;20043;-78
2022/07/05 09:38:19;;;;;;;3.92;1.05;;;19.90;59.20;;;;;;4965714;28;20150;-79
2022/07/05 09:40:52;;;;;;;4.50;1.05;;;20.10;59.40;;;;;;4948112;28;20047;-78
2022/07/05 09:43:29;;;;;;;4.07;1.13;;;20.10;57.20;;;;;;4931197;29;20047;-76
2022/07/05 09:45:54;;;;;;;3.03;0.88;;;20.00;58.40;;;;;;4933336;29;20118;-77
2022/07/05 09:48:20;;;;;;;6.95;1.27;;;19.90;59.50;;;;;;4934242;29;20570;-79
2022/07/05 09:50:48;;;;;;;3.78;0.93;;;19.80;60.30;;;;;;4949358;28;20040;-79
2022/07/05 09:53:13;;;;;;;3.40;1.15;;;19.60;59.30;;;;;;4948936;29;20062;-77
2022/07/05 09:55:40;;;;;;;2.42;1.02;;;19.60;60.10;;;;;;4931441;29;20130;-78
2022/07/05 09:58:07;;;;;;;2.15;0.80;;;19.50;59.20;;;;;;4941931;29;20051;-77
2022/07/05 10:00:32;;;;;;;4.18;1.27;;;19.40;57.60;;;;;;4951720;28;20058;-76
2022/07/05 10:03:02;;;;;;;5.78;1.10;;;19.50;57.70;;;;;;4943606;29;20060;-77
2022/07/05 10:05:32;;;;;;;3.88;1.20;;;19.60;58.70;;;;;;4951230;29;20036;-78
2022/07/05 10:08:01;;;;;;;2.13;0.73;;;19.90;59.90;;;;;;4952246;29;20102;-79
2022/07/05 10:10:32;;;;;;;3.05;0.85;;;20.20;59.60;;;;;;4970130;28;20054;-78
2022/07/05 10:13:03;;;;;;;4.28;0.80;;;20.50;55.10;;;;;;4955334;29;20472;-78
2022/07/05 10:15:30;;;;;;;2.55;0.75;;;20.60;55.10;;;;;;4957985;28;20128;-77
2022/07/05 10:18:04;;;;;;;2.67;0.80;;;20.70;54.60;;;;;;4962231;28;20042;-78
2022/07/05 10:20:42;;;;;;;1.60;0.90;;;20.80;54.20;;;;;;4970180;28;20053;-77
2022/07/05 10:23:13;;;;;;;2.17;0.73;;;20.90;55.00;;;;;;4962774;28;20042;-77
2022/07/05 10:25:42;;;;;;;4.05;0.90;;;20.80;52.80;;;;;;4977017;28;20598;-78
2022/07/05 10:28:08;;;;;;;4.03;0.82;;;20.90;54.30;;;;;;4964405;28;20075;-78
2022/07/05 10:30:35;;;;;;;2.63;1.00;;;20.80;53.50;;;;;;4962154;28;20046;-77
2022/07/05 10:33:06;;;;;;;3.75;1.02;;;20.90;53.70;;;;;;4945094;28;20137;-77
2022/07/05 10:35:33;;;;;;;2.28;0.70;;;20.90;54.70;;;;;;4950610;28;20780;-78
2022/07/05 10:38:00;;;;;;;4.20;0.90;;;20.80;53.70;;;;;;4945683;28;20051;-79
2022/07/05 10:40:27;;;;;;;1.48;0.60;;;20.60;54.40;;;;;;4961383;28;20095;-78
2022/07/05 10:42:56;;;;;;;5.22;0.93;;;20.70;54.40;;;;;;4961453;28;20051;-78
2022/07/05 10:45:36;;;;;;;1.25;0.70;;;20.90;54.10;;;;;;4962975;28;20049;-77
2022/07/05 10:48:21;;;;;;;4.38;0.70;;;21.20;55.30;;;;;;4961399;28;20506;-77
2022/07/05 10:50:55;;;;;;;2.60;1.00;;;21.10;53.40;;;;;;4964229;28;20047;-78
2022/07/05 10:53:30;;;;;;;4.13;1.17;;;20.90;54.10;;;;;;4960798;28;20042;-78
2022/07/05 10:56:05;;;;;;;5.85;1.10;;;20.80;57.00;;;;;;4963629;28;20050;-78
2022/07/05 10:58:44;;;;;;;4.00;1.00;;;20.50;57.50;;;;;;4960132;28;20312;-77
2022/07/05 11:01:15;;;;;;;6.05;1.10;;;20.60;58.30;;;;;;4969558;28;20058;-78
2022/07/05 11:03:42;;;;;;;5.50;1.05;;;20.80;58.70;;;;;;4979583;28;20050;-78
2022/07/05 11:06:18;;;;;;;4.95;1.25;;;20.70;59.30;;;;;;4962200;28;20093;-76
2022/07/05 11:08:59;;;;;;;12.25;1.58;;;20.40;60.20;;;;;;4962269;28;20050;-80
2022/07/05 11:11:41;;;;;;;6.07;1.33;;;20.20;59.80;;;;;;4977380;28;20138;-81
2022/07/05 11:14:20;;;;;;;4.90;1.05;;;20.00;61.00;;;;;;4941007;28;20090;-80
2022/07/05 11:16:46;;;;;;;2.63;0.90;;;19.90;60.50;;;;;;4954890;28;20055;-79
2022/07/05 11:19:18;;;;;;;2.42;0.80;;;19.80;60.60;;;;;;4947639;29;20055;-79
2022/07/05 11:22:01;;;;;;;4.95;1.00;;;19.80;61.00;;;;;;4931851;29;20058;-78
2022/07/05 11:24:34;;;;;;;4.78;1.17;;;19.70;60.90;;;;;;4932405;29;20448;-78
2022/07/05 11:27:03;;;;;;;3.88;1.13;;;19.60;61.30;;;;;;4944975;29;20051;-77
2022/07/05 11:29:48;;;;;;;4.10;1.25;;;19.50;60.70;;;;;;4963795;28;20039;-78
2022/07/05 11:32:21;;;;;;;2.65;0.95;;;19.50;59.30;;;;;;4931937;29;20126;-77
2022/07/05 11:34:49;;;;;;;3.13;1.30;;;19.50;58.00;;;;;;4948115;29;20117;-77
2022/07/05 11:37:28;;;;;;;2.10;0.75;;;19.50;58.40;;;;;;4946183;28;20047;-75
2022/07/05 11:40:11;;;;;;;2.50;1.02;;;19.60;58.30;;;;;;4948087;29;20067;-78
2022/07/05 11:42:48;;;;;;;4.05;1.30;;;19.60;58.50;;;;;;4962857;28;20502;-78
2022/07/05 11:45:14;;;;;;;4.53;0.80;;;19.70;58.60;;;;;;4931430;29;20058;-76
2022/07/05 11:47:40;;;;;;;3.58;1.20;;;19.80;58.60;;;;;;4946773;29;20047;-77
2022/07/05 11:50:07;;;;;;;3.17;1.20;;;19.90;58.30;;;;;;4947126;28;20503;-76
2022/07/05 11:52:34;;;;;;;2.92;1.33;;;20.00;58.00;;;;;;4962088;28;20500;-78
2022/07/05 11:55:10;;;;;;;3.15;1.05;;;20.10;57.50;;;;;;4947437;29;20073;-75
2022/07/05 11:57:37;;;;;;;5.25;2.15;;;20.10;57.50;;;;;;4946533;29;20492;-76
2022/07/05 12:00:04;;;;;;;5.30;2.45;;;20.20;57.80;;;;;;4946809;28;20051;-78
2022/07/05 12:02:30;;;;;;;3.35;1.50;;;20.30;56.60;;;;;;4963369;28;20070;-77
2022/07/05 12:04:57;;;;;;;2.58;1.20;;;20.30;57.30;;;;;;4947676;28;20097;-78
2022/07/05 12:07:27;;;;;;;6.15;1.40;;;20.30;55.90;;;;;;4946263;29;20055;-78
2022/07/05 12:12:43;;;;;;;5.70;1.35;;;20.00;57.70;;;;;;4933138;29;20079;-78
2022/07/05 12:15:16;;;;;;;2.85;0.95;;;20.00;57.30;;;;;;4931247;29;20059;-77
2022/07/05 12:17:43;;;;;;;2.83;1.30;;;19.90;56.80;;;;;;4945822;29;20551;-78
2022/07/05 12:20:12;;;;;;;4.03;1.48;;;20.10;56.80;;;;;;4952053;29;20047;-76
2022/07/05 12:22:44;;;;;;;4.25;1.25;;;20.40;56.70;;;;;;4953837;28;20171;-78
2022/07/05 12:25:20;;;;;;;4.25;1.30;;;20.50;55.60;;;;;;4953934;29;20539;-79
2022/07/05 12:27:48;;;;;;;4.30;1.33;;;20.50;55.10;;;;;;4954108;29;20047;-77
2022/07/05 12:30:15;;;;;;;2.83;1.02;;;20.50;55.60;;;;;;4954180;29;20062;-78
2022/07/05 12:33:07;;;;;;;2.38;1.00;;;20.50;54.30;;;;;;4954258;29;20050;-78
2022/07/05 12:35:40;;;;;;;6.78;1.00;;;20.80;54.90;;;;;;4953957;29;20100;-77
2022/07/05 12:38:06;;;;;;;4.25;1.15;;;21.10;52.60;;;;;;4954133;29;20097;-77
2022/07/05 12:40:33;;;;;;;5.60;1.13;;;21.30;53.10;;;;;;4953715;29;20097;-77
2022/07/05 12:43:17;;;;;;;4.32;0.98;;;21.20;54.30;;;;;;4937864;29;20043;-80
2022/07/05 12:45:58;;;;;;;2.50;0.80;;;20.90;54.50;;;;;;4953904;29;20043;-78
2022/07/05 12:48:39;;;;;;;2.20;1.17;;;20.70;55.20;;;;;;4953792;29;20043;-78
2022/07/05 12:51:06;;;;;;;2.58;0.98;;;20.50;56.10;;;;;;4953737;29;20562;-79
2022/07/05 12:59:09;;;;;;;2.60;1.17;;;20.40;55.80;;;;;;4953831;29;20118;-77
2022/07/05 13:01:40;;;;;;;3.80;1.15;;;20.30;55.60;;;;;;4953868;29;20066;-78
2022/07/05 13:04:24;;;;;;;3.53;1.50;;;20.40;57.10;;;;;;4937931;29;20130;-80
2022/07/05 13:07:02;;;;;;;2.08;0.93;;;20.60;55.90;;;;;;4937766;29;20090;-78
2022/07/05 13:09:28;;;;;;;1.70;1.02;;;20.70;55.60;;;;;;4937615;29;20046;-78